createdAt,value
2023-01-13T00:00:17.835Z,93.65
2023-01-13T00:02:45.486Z,90.70
2023-01-13T00:05:13.005Z,95.52
2023-01-13T00:07:40.737Z,96.57
2023-01-13T00:10:09.984Z,94.69
2023-01-13T00:12:41.697Z,96.09
2023-01-13T00:15:11.137Z,93.77
2023-01-13T00:17:39.159Z,93.80
2023-01-13T00:20:08.107Z,92.86
2023-01-13T00:22:35.948Z,92.26
2023-01-13T00:25:04.403Z,89.92
2023-01-13T00:27:32.151Z,91.39
2023-01-13T00:30:01.066Z,94.50
2023-01-13T00:32:29.164Z,95.06
2023-01-13T00:34:56.881Z,94.95
2023-01-13T00:37:24.388Z,94.09
2023-01-13T00:39:52.138Z,93.30
2023-01-13T00:42:51.974Z,94.13
2023-01-13T00:45:20.891Z,92.54
2023-01-13T00:47:50.804Z,93.14
2023-01-13T00:50:18.509Z,93.33
2023-01-13T00:52:46.163Z,92.89
2023-01-13T00:55:13.684Z,91.61
2023-01-13T00:57:41.219Z,91.70
2023-01-13T01:00:10.054Z,91.48
2023-01-13T01:02:39.031Z,92.47
2023-01-13T01:05:07.467Z,91.14
2023-01-13T01:07:34.959Z,90.64
2023-01-13T01:10:02.474Z,89.50
2023-01-13T01:12:29.980Z,89.98
2023-01-13T01:14:57.573Z,90.39
2023-01-13T01:17:25.105Z,90.42
2023-01-13T01:19:53.933Z,88.98
2023-01-13T01:22:21.455Z,90.87
2023-01-13T01:24:51.086Z,88.41
2023-01-13T01:27:18.633Z,91.47
2023-01-13T01:29:50.856Z,90.72
2023-01-13T01:32:18.475Z,91.66
2023-01-13T01:34:46.048Z,90.09
2023-01-13T01:37:15.001Z,92.22
2023-01-13T01:39:42.541Z,90.38
2023-01-13T01:42:33.696Z,92.03
2023-01-13T01:45:05.307Z,92.39
2023-01-13T01:47:33.488Z,90.99
2023-01-13T01:50:03.429Z,90.02
2023-01-13T01:52:36.126Z,89.88
2023-01-13T01:55:08.920Z,90.48
2023-01-13T01:57:43.196Z,88.77
2023-01-13T02:00:12.118Z,90.49
2023-01-13T02:02:40.907Z,91.02
2023-01-13T02:05:09.352Z,87.23
2023-01-13T02:07:40.921Z,85.93
2023-01-13T02:10:12.617Z,88.11
2023-01-13T02:12:41.495Z,86.06
2023-01-13T02:15:12.729Z,85.80
2023-01-13T02:18:10.965Z,86.97
2023-01-13T02:21:08.906Z,88.07
2023-01-13T02:24:21.510Z,90.00
2023-01-13T02:27:26.247Z,89.27
2023-01-13T02:30:21.704Z,90.08
2023-01-13T02:33:02.196Z,89.41
2023-01-13T02:35:38.392Z,89.56
2023-01-13T02:38:07.021Z,86.74
2023-01-13T02:40:39.014Z,88.48
2023-01-13T02:43:30.865Z,87.46
2023-01-13T02:46:04.376Z,88.27
2023-01-13T02:48:33.164Z,90.61
2023-01-13T02:51:05.903Z,90.00
2023-01-13T02:53:37.053Z,87.05
2023-01-13T02:56:06.415Z,89.94
2023-01-13T02:58:37.195Z,87.40
2023-01-13T03:01:06.524Z,88.37
2023-01-13T03:03:34.018Z,88.10
2023-01-13T03:06:12.030Z,87.78
2023-01-13T03:08:47.749Z,88.63
2023-01-13T03:11:17.013Z,89.37
2023-01-13T03:14:08.819Z,86.54
2023-01-13T03:16:51.527Z,87.21
2023-01-13T03:19:30.104Z,86.02
2023-01-13T03:22:02.506Z,86.91
2023-01-13T03:24:36.763Z,86.73
2023-01-13T03:27:11.613Z,86.00
2023-01-13T03:29:45.514Z,86.11
2023-01-13T03:32:19.064Z,86.19
2023-01-13T03:34:51.116Z,85.46
2023-01-13T03:37:23.171Z,87.32
2023-01-13T03:39:56.375Z,85.43
2023-01-13T03:42:25.925Z,87.42
2023-01-13T03:44:57.666Z,85.49
2023-01-13T03:47:30.685Z,86.25
2023-01-13T03:50:03.503Z,85.19
2023-01-13T03:52:35.887Z,83.72
2023-01-13T03:55:07.906Z,84.05
2023-01-13T03:57:39.403Z,84.74
2023-01-13T04:00:10.677Z,83.43
2023-01-13T04:02:50.234Z,83.99
2023-01-13T04:05:18.809Z,83.09
2023-01-13T04:07:52.000Z,84.07
2023-01-13T04:10:24.424Z,84.14
2023-01-13T04:13:04.427Z,85.46
2023-01-13T04:15:35.746Z,85.33
2023-01-13T04:18:12.358Z,87.41
2023-01-13T04:20:40.742Z,85.64
2023-01-13T04:23:09.042Z,85.46
2023-01-13T04:25:37.295Z,85.11
2023-01-13T04:28:05.090Z,84.57
2023-01-13T04:30:32.580Z,85.30
2023-01-13T04:33:00.004Z,86.03
2023-01-13T04:35:28.749Z,85.89
2023-01-13T04:37:56.167Z,86.32
2023-01-13T04:40:24.158Z,84.90
2023-01-13T04:42:51.549Z,86.45
2023-01-13T04:45:18.977Z,85.49
2023-01-13T04:47:46.589Z,85.46
2023-01-13T04:50:14.056Z,85.61
2023-01-13T04:52:42.823Z,87.15
2023-01-13T04:55:11.343Z,87.00
2023-01-13T04:57:38.770Z,88.09
2023-01-13T05:00:07.889Z,86.74
2023-01-13T05:02:35.325Z,84.91
2023-01-13T05:05:02.863Z,88.12
2023-01-13T05:07:30.349Z,88.22
2023-01-13T05:09:59.304Z,86.35
2023-01-13T05:12:44.416Z,85.47
2023-01-13T05:15:30.772Z,85.36
2023-01-13T05:17:58.461Z,86.99
2023-01-13T05:20:26.260Z,84.55
2023-01-13T05:23:11.215Z,86.13
2023-01-13T05:25:44.387Z,85.70
2023-01-13T05:28:12.639Z,84.53
2023-01-13T05:30:43.242Z,84.40
2023-01-13T05:33:11.055Z,85.15
2023-01-13T05:35:39.563Z,85.28
2023-01-13T05:38:06.982Z,84.93
2023-01-13T05:40:52.548Z,84.58
2023-01-13T05:43:24.483Z,85.45
2023-01-13T05:45:54.708Z,85.56
2023-01-13T05:48:23.948Z,87.79
2023-01-13T05:50:51.640Z,87.15
2023-01-13T05:53:19.227Z,86.76
2023-01-13T05:55:47.068Z,87.73
2023-01-13T05:58:16.406Z,89.26
2023-01-13T06:00:45.220Z,86.90
2023-01-13T06:03:13.731Z,86.99
2023-01-13T06:05:41.431Z,86.74
2023-01-13T06:08:09.730Z,87.06
2023-01-13T06:10:37.662Z,87.12
2023-01-13T06:13:05.961Z,87.14
2023-01-13T06:15:33.417Z,85.48
2023-01-13T06:18:04.691Z,87.21
2023-01-13T06:20:32.601Z,87.44
2023-01-13T06:23:00.584Z,88.09
2023-01-13T06:25:39.180Z,87.19
2023-01-13T06:28:06.623Z,86.78
2023-01-13T06:30:40.708Z,86.07
2023-01-13T06:33:14.502Z,86.39
2023-01-13T06:35:45.494Z,91.48
2023-01-13T06:38:18.396Z,90.80
2023-01-13T06:40:46.269Z,89.61
2023-01-13T06:43:16.621Z,89.47
2023-01-13T06:45:47.903Z,95.93
2023-01-13T06:48:17.589Z,90.92
2023-01-13T06:50:45.653Z,87.71
2023-01-13T06:53:13.118Z,88.41
2023-01-13T06:55:40.639Z,86.73
2023-01-13T06:58:08.104Z,86.04
2023-01-13T07:00:37.396Z,87.48
2023-01-13T07:03:09.875Z,86.62
2023-01-13T07:05:39.090Z,86.95
2023-01-13T07:08:07.515Z,86.38
2023-01-13T07:10:35.357Z,86.98
2023-01-13T07:13:22.263Z,89.53
2023-01-13T07:15:57.584Z,87.63
2023-01-13T07:18:27.305Z,88.52
2023-01-13T07:20:58.475Z,86.03
2023-01-13T07:23:26.606Z,86.43
2023-01-13T07:25:56.383Z,85.96
2023-01-13T07:28:23.806Z,86.73
2023-01-13T07:30:51.584Z,85.12
2023-01-13T07:33:19.011Z,86.05
2023-01-13T07:35:46.891Z,87.82
2023-01-13T07:38:16.134Z,86.65
2023-01-13T07:40:43.563Z,84.78
2023-01-13T07:43:30.917Z,83.08
2023-01-13T07:45:59.358Z,86.08
2023-01-13T07:48:27.215Z,84.12
2023-01-13T07:50:55.125Z,84.18
2023-01-13T07:53:25.915Z,84.04
2023-01-13T07:55:56.222Z,84.58
2023-01-13T07:58:23.856Z,83.71
2023-01-13T08:00:51.383Z,82.74
2023-01-13T08:03:18.964Z,83.11
2023-01-13T08:05:47.145Z,82.80
2023-01-13T08:08:14.566Z,83.05
2023-01-13T08:10:43.301Z,81.54
2023-01-13T08:13:21.111Z,82.36
2023-01-13T08:15:50.494Z,81.04
2023-01-13T08:18:20.792Z,80.39
2023-01-13T08:20:48.562Z,79.73
2023-01-13T08:23:16.509Z,80.51
2023-01-13T08:25:45.509Z,79.73
2023-01-13T08:28:13.294Z,80.95
2023-01-13T08:30:40.923Z,82.52
2023-01-13T08:33:10.379Z,80.36
2023-01-13T08:35:38.428Z,80.23
2023-01-13T08:38:06.695Z,80.61
2023-01-13T08:40:34.360Z,79.63
2023-01-13T08:43:03.269Z,80.80
2023-01-13T08:45:30.780Z,81.22
2023-01-13T08:47:58.571Z,80.23
2023-01-13T08:50:26.015Z,80.14
2023-01-13T08:52:53.449Z,82.10
2023-01-13T08:55:21.126Z,80.48
2023-01-13T08:57:48.596Z,81.04
2023-01-13T09:00:18.211Z,80.25
2023-01-13T09:02:45.657Z,81.75
2023-01-13T09:05:14.675Z,81.59
2023-01-13T09:07:43.583Z,81.13
2023-01-13T09:10:11.706Z,82.20
2023-01-13T09:12:56.794Z,82.17
2023-01-13T09:15:25.575Z,80.44
2023-01-13T09:17:53.090Z,79.58
2023-01-13T09:20:20.625Z,80.00
2023-01-13T09:22:48.077Z,92.15
2023-01-13T09:25:15.589Z,88.07
2023-01-13T09:27:42.977Z,82.55
2023-01-13T09:30:11.802Z,82.80
2023-01-13T09:32:40.530Z,78.87
2023-01-13T09:35:08.251Z,79.65
2023-01-13T09:37:39.071Z,79.44
2023-01-13T09:40:08.517Z,76.67
2023-01-13T09:43:03.569Z,75.83
2023-01-13T09:45:35.756Z,77.39
2023-01-13T09:48:10.981Z,77.33
2023-01-13T09:50:50.031Z,74.08
2023-01-13T09:53:22.352Z,72.46
2023-01-13T09:55:49.926Z,75.09
2023-01-13T09:58:19.338Z,77.35
2023-01-13T10:00:56.881Z,77.01
2023-01-13T10:03:28.447Z,78.09
2023-01-13T10:06:04.544Z,76.39
2023-01-13T10:08:35.087Z,76.99
2023-01-13T10:11:24.868Z,76.09
2023-01-13T10:13:57.899Z,79.07
2023-01-13T10:16:31.908Z,79.13
2023-01-13T10:19:06.529Z,78.24
2023-01-13T10:22:00.991Z,77.78
2023-01-13T10:24:39.346Z,79.23
2023-01-13T10:27:13.492Z,79.08
2023-01-13T10:29:40.991Z,76.83
2023-01-13T10:32:08.668Z,80.02
2023-01-13T10:34:46.148Z,76.09
2023-01-13T10:37:22.270Z,76.70
2023-01-13T10:39:49.998Z,77.64
2023-01-13T10:42:21.939Z,78.29
2023-01-13T10:44:51.687Z,76.12
2023-01-13T10:47:25.682Z,76.49
2023-01-13T10:50:22.359Z,75.54
2023-01-13T10:52:59.302Z,75.63
2023-01-13T10:55:30.157Z,76.99
2023-01-13T10:57:57.763Z,76.40
2023-01-13T11:00:30.577Z,77.89
2023-01-13T11:03:16.297Z,77.09
2023-01-13T11:05:52.223Z,75.75
2023-01-13T11:08:22.441Z,76.53
2023-01-13T11:10:52.464Z,76.03
2023-01-13T11:13:26.166Z,75.25
2023-01-13T11:15:58.666Z,75.41
2023-01-13T11:18:36.197Z,74.93
2023-01-13T11:21:10.296Z,75.89
2023-01-13T11:23:43.215Z,74.45
2023-01-13T11:26:17.164Z,73.70
2023-01-13T11:28:54.244Z,73.32
2023-01-13T11:31:26.108Z,71.75
2023-01-13T11:33:59.311Z,73.59
2023-01-13T11:36:34.594Z,74.02
2023-01-13T11:39:10.982Z,74.76
2023-01-13T11:41:43.959Z,72.80
2023-01-13T11:44:20.255Z,71.57
2023-01-13T11:46:50.114Z,71.40
2023-01-13T11:49:24.660Z,72.07
2023-01-13T11:52:00.665Z,71.76
2023-01-13T11:54:54.026Z,71.51
2023-01-13T11:57:50.574Z,71.83
2023-01-13T12:00:33.537Z,70.61
2023-01-13T12:03:21.248Z,71.61
2023-01-13T12:06:03.218Z,73.19
2023-01-13T12:08:52.925Z,70.73
2023-01-13T12:11:28.730Z,71.08
2023-01-13T12:14:11.419Z,71.74
2023-01-13T12:16:46.910Z,71.31
2023-01-13T12:19:27.995Z,71.69
2023-01-13T12:22:08.614Z,69.11
2023-01-13T12:24:44.287Z,71.25
2023-01-13T12:27:18.811Z,70.53
2023-01-13T12:29:47.867Z,70.69
2023-01-13T12:32:20.894Z,71.10
2023-01-13T12:34:58.551Z,71.44
2023-01-13T12:37:33.499Z,70.47
2023-01-13T12:40:20.458Z,71.32
2023-01-13T12:43:11.770Z,69.62
2023-01-13T12:45:39.244Z,69.53
2023-01-13T12:48:07.291Z,68.06
2023-01-13T12:50:41.375Z,67.89
2023-01-13T12:53:31.941Z,68.02
2023-01-13T12:56:26.101Z,66.71
2023-01-13T12:58:53.618Z,66.09
2023-01-13T13:01:36.017Z,66.61
2023-01-13T13:04:09.315Z,66.66
2023-01-13T13:06:38.245Z,66.50
2023-01-13T13:09:17.507Z,67.36
2023-01-13T13:12:05.911Z,66.29
2023-01-13T13:15:03.866Z,66.91
2023-01-13T13:17:45.525Z,65.65
2023-01-13T13:20:53.787Z,66.19
2023-01-13T13:23:29.890Z,64.88
2023-01-13T13:26:04.665Z,66.53
2023-01-13T13:28:39.112Z,64.95
2023-01-13T13:31:20.536Z,66.05
2023-01-13T13:34:13.945Z,65.47
2023-01-13T13:36:55.585Z,66.05
2023-01-13T13:39:43.182Z,65.09
2023-01-13T13:42:31.976Z,65.16
2023-01-13T13:45:20.899Z,67.07
2023-01-13T13:47:48.450Z,65.77
2023-01-13T13:50:20.442Z,66.42
2023-01-13T13:52:54.925Z,66.79
2023-01-13T13:55:25.414Z,65.81
2023-01-13T13:57:54.178Z,65.43
2023-01-13T14:00:26.124Z,66.28
2023-01-13T14:02:55.941Z,64.57
2023-01-13T14:05:25.586Z,64.87
2023-01-13T14:08:00.250Z,65.42
2023-01-13T14:10:34.948Z,64.57
2023-01-13T14:13:03.968Z,64.67
2023-01-13T14:15:39.761Z,65.25
2023-01-13T14:18:13.366Z,65.09
2023-01-13T14:20:40.997Z,64.76
2023-01-13T14:23:17.181Z,65.01
2023-01-13T14:25:48.515Z,64.57
2023-01-13T14:28:23.624Z,63.84
2023-01-13T14:30:53.252Z,63.85
2023-01-13T14:33:25.121Z,62.43
2023-01-13T14:36:14.888Z,65.49
2023-01-13T14:38:43.705Z,64.00
2023-01-13T14:41:21.215Z,63.39
2023-01-13T14:43:50.782Z,65.32
2023-01-13T14:46:22.339Z,63.92
2023-01-13T14:48:52.865Z,60.99
2023-01-13T14:51:26.601Z,63.90
2023-01-13T14:53:54.440Z,65.72
2023-01-13T14:56:39.065Z,62.44
2023-01-13T14:59:55.328Z,61.33
2023-01-13T15:02:38.725Z,62.34
2023-01-13T15:05:33.138Z,63.36
2023-01-13T15:08:04.585Z,61.16
2023-01-13T15:10:33.746Z,63.25
2023-01-13T15:13:03.579Z,62.46
2023-01-13T15:15:33.849Z,64.42
2023-01-13T15:18:06.549Z,64.48
2023-01-13T15:20:34.020Z,64.20
2023-01-13T15:23:01.542Z,63.56
2023-01-13T15:25:33.045Z,63.34
2023-01-13T15:28:00.590Z,61.39
2023-01-13T15:30:28.895Z,65.02
2023-01-13T15:32:58.601Z,62.77
2023-01-13T15:35:29.348Z,62.21
2023-01-13T15:37:57.840Z,64.18
2023-01-13T15:40:27.287Z,65.15
2023-01-13T15:43:12.241Z,63.77
2023-01-13T15:45:57.009Z,65.13
2023-01-13T15:48:26.255Z,64.37
2023-01-13T15:50:55.461Z,63.70
2023-01-13T15:53:32.627Z,63.98
2023-01-13T15:56:09.629Z,63.80
2023-01-13T15:58:42.090Z,64.07
2023-01-13T16:01:10.940Z,63.32
2023-01-13T16:03:40.685Z,63.08
2023-01-13T16:06:16.241Z,62.81
2023-01-13T16:08:43.753Z,64.65
2023-01-13T16:11:14.878Z,66.99
2023-01-13T16:13:47.722Z,65.96
2023-01-13T16:16:19.778Z,66.46
2023-01-13T16:21:19.152Z,65.21
2023-01-13T16:23:46.928Z,64.88
2023-01-13T16:26:20.184Z,64.97
2023-01-13T16:28:47.697Z,65.63
2023-01-13T16:31:29.138Z,64.98
2023-01-13T16:33:57.672Z,65.85
2023-01-13T16:36:26.770Z,64.84
2023-01-13T16:38:54.557Z,65.10
2023-01-13T16:41:24.784Z,64.95
2023-01-13T16:43:52.497Z,65.36
2023-01-13T16:46:23.073Z,64.71
2023-01-13T16:48:52.909Z,64.83
2023-01-13T16:51:21.074Z,64.80
2023-01-13T16:53:55.630Z,64.40
2023-01-13T16:56:28.165Z,68.09
2023-01-13T16:58:57.550Z,66.19
2023-01-13T17:01:29.545Z,65.54
2023-01-13T17:03:58.696Z,63.98
2023-01-13T17:06:30.439Z,65.40
2023-01-13T17:09:03.499Z,65.46
2023-01-13T17:11:31.207Z,64.89
2023-01-13T17:13:58.674Z,66.24
2023-01-13T17:16:26.631Z,67.49
2023-01-13T17:18:54.531Z,66.82
2023-01-13T17:21:22.028Z,65.84
2023-01-13T17:23:49.613Z,68.51
2023-01-13T17:26:37.276Z,69.42
2023-01-13T17:29:06.740Z,70.09
2023-01-13T17:31:35.627Z,72.63
2023-01-13T17:34:03.654Z,73.64
2023-01-13T17:36:31.208Z,73.91
2023-01-13T17:38:59.249Z,71.69
2023-01-13T17:41:27.243Z,73.00
2023-01-13T17:43:56.039Z,74.20
2023-01-13T17:46:23.899Z,74.92
2023-01-13T17:48:52.660Z,73.24
2023-01-13T17:51:25.083Z,72.48
2023-01-13T17:53:55.624Z,74.51
2023-01-13T17:56:25.147Z,73.10
2023-01-13T17:58:52.605Z,73.15
2023-01-13T18:01:22.984Z,71.46
2023-01-13T18:03:50.903Z,73.37
2023-01-13T18:06:20.236Z,71.99
2023-01-13T18:08:48.575Z,71.81
2023-01-13T18:11:18.711Z,71.97
2023-01-13T18:13:46.616Z,74.14
2023-01-13T18:16:16.867Z,73.71
2023-01-13T18:18:47.784Z,75.64
2023-01-13T18:21:37.492Z,73.80
2023-01-13T18:24:23.458Z,72.26
2023-01-13T18:27:08.264Z,72.64
2023-01-13T18:29:35.729Z,72.05
2023-01-13T18:32:03.168Z,70.39
2023-01-13T18:34:31.948Z,72.41
2023-01-13T18:36:59.380Z,72.82
2023-01-13T18:39:26.965Z,72.14
2023-01-13T18:42:12.003Z,72.99
2023-01-13T18:44:39.492Z,73.27
2023-01-13T18:47:06.942Z,72.16
2023-01-13T18:49:35.945Z,71.08
2023-01-13T18:52:03.456Z,72.65
2023-01-13T18:54:30.898Z,68.57
2023-01-13T18:56:58.320Z,72.15
2023-01-13T18:59:26.133Z,71.80
2023-01-13T19:01:53.816Z,70.91
2023-01-13T19:04:21.621Z,72.04
2023-01-13T19:06:51.723Z,71.04
2023-01-13T19:09:24.363Z,71.35
2023-01-13T19:11:52.304Z,70.62
2023-01-13T19:14:34.822Z,71.26
2023-01-13T19:17:02.971Z,71.32
2023-01-13T19:19:31.292Z,71.43
2023-01-13T19:22:00.113Z,72.47
2023-01-13T19:24:27.533Z,72.65
2023-01-13T19:26:55.237Z,72.41
2023-01-13T19:29:22.895Z,72.30
2023-01-13T19:31:50.383Z,74.43
2023-01-13T19:34:18.318Z,73.37
2023-01-13T19:36:45.780Z,70.73
2023-01-13T19:39:14.968Z,71.85
2023-01-13T19:42:00.015Z,73.26
2023-01-13T19:44:44.862Z,71.76
2023-01-13T19:47:12.292Z,73.42
2023-01-13T19:49:39.757Z,71.78
2023-01-13T19:52:07.200Z,71.87
2023-01-13T19:54:36.200Z,70.41
2023-01-13T19:57:03.723Z,71.34
2023-01-13T19:59:32.496Z,72.56
2023-01-13T20:02:01.490Z,71.54
2023-01-13T20:04:38.241Z,71.22
2023-01-13T20:07:06.540Z,73.09
2023-01-13T20:09:34.545Z,73.57
2023-01-13T20:12:05.694Z,74.67
2023-01-13T20:14:33.080Z,73.17
2023-01-13T20:17:00.579Z,70.94
2023-01-13T20:19:28.165Z,71.99
2023-01-13T20:21:55.605Z,73.64
2023-01-13T20:24:24.688Z,71.37
2023-01-13T20:26:52.123Z,73.33
2023-01-13T20:29:20.926Z,72.35
2023-01-13T20:31:49.595Z,71.83
2023-01-13T20:34:19.101Z,73.05
2023-01-13T20:36:48.133Z,72.82
2023-01-13T20:39:17.979Z,71.70
2023-01-13T20:42:03.387Z,72.61
2023-01-13T20:44:32.404Z,74.77
2023-01-13T20:46:59.981Z,74.97
2023-01-13T20:49:28.527Z,73.73
2023-01-13T20:51:56.349Z,74.12
2023-01-13T20:54:24.151Z,73.72
2023-01-13T20:56:51.618Z,72.46
2023-01-13T20:59:19.249Z,74.74
2023-01-13T21:01:48.052Z,74.54
2023-01-13T21:04:15.486Z,74.39
2023-01-13T21:06:43.226Z,73.21
2023-01-13T21:09:10.740Z,73.74
2023-01-13T21:11:55.679Z,72.29
2023-01-13T21:14:42.412Z,73.72
2023-01-13T21:17:38.533Z,73.48
2023-01-13T21:20:14.131Z,72.42
2023-01-13T21:22:45.550Z,72.62
2023-01-13T21:25:13.876Z,74.09
2023-01-13T21:27:43.854Z,74.87
2023-01-13T21:30:14.764Z,74.20
2023-01-13T21:32:44.629Z,74.11
2023-01-13T21:35:12.900Z,71.71
2023-01-13T21:37:43.058Z,72.70
2023-01-13T21:40:13.307Z,73.01
2023-01-13T21:42:58.373Z,73.50
2023-01-13T21:45:43.015Z,74.27
2023-01-13T21:48:11.780Z,72.38
2023-01-13T21:50:39.683Z,73.71
2023-01-13T21:53:08.399Z,72.77
2023-01-13T21:55:37.513Z,73.71
2023-01-13T21:58:10.131Z,74.05
2023-01-13T22:00:38.253Z,74.20
2023-01-13T22:03:07.727Z,72.57
2023-01-13T22:05:37.304Z,73.69
2023-01-13T22:08:05.745Z,73.74
2023-01-13T22:10:34.308Z,74.60
2023-01-13T22:13:24.189Z,73.05
2023-01-13T22:15:51.691Z,71.32
2023-01-13T22:18:19.155Z,74.51
2023-01-13T22:20:49.175Z,73.24
2023-01-13T22:23:16.996Z,73.30
2023-01-13T22:25:44.425Z,72.20
2023-01-13T22:28:13.815Z,73.25
2023-01-13T22:30:41.464Z,73.60
2023-01-13T22:33:09.665Z,71.98
2023-01-13T22:35:38.425Z,71.45
2023-01-13T22:38:07.178Z,70.25
2023-01-13T22:40:34.623Z,73.02
2023-01-13T22:43:02.040Z,73.11
2023-01-13T22:45:29.455Z,73.47
2023-01-13T22:47:56.876Z,72.96
2023-01-13T22:50:24.808Z,72.09
2023-01-13T22:52:52.298Z,73.29
2023-01-13T22:55:21.111Z,72.85
2023-01-13T22:57:48.632Z,71.69
2023-01-13T23:00:19.144Z,71.66
2023-01-13T23:02:46.876Z,72.92
2023-01-13T23:05:14.670Z,72.39
2023-01-13T23:07:42.278Z,74.40
2023-01-13T23:10:10.697Z,73.71
2023-01-13T23:12:39.493Z,74.60
2023-01-13T23:15:07.750Z,76.07
2023-01-13T23:17:35.151Z,74.65
2023-01-13T23:20:03.019Z,73.93
2023-01-13T23:22:30.489Z,74.44
2023-01-13T23:24:57.880Z,73.60
2023-01-13T23:27:25.340Z,73.82
2023-01-13T23:29:55.989Z,75.52
2023-01-13T23:32:23.568Z,74.55
2023-01-13T23:34:50.970Z,76.28
2023-01-13T23:37:18.605Z,74.17
2023-01-13T23:39:46.124Z,76.01
2023-01-13T23:42:13.680Z,77.86
2023-01-13T23:44:41.110Z,75.86
2023-01-13T23:47:09.993Z,75.01
2023-01-13T23:49:37.366Z,75.60
2023-01-13T23:52:04.817Z,74.62
2023-01-13T23:54:32.208Z,75.57
2023-01-13T23:57:00.531Z,76.98
2023-01-13T23:59:28.027Z,77.95
